Time;durP1;ratioP1;P1;durP2;ratioP2;P2;SDS_P1;SDS_P2;PMS_P1;PMS_P2;Temp;Humidity;BMP_temperature;BMP_pressure;BME280_temperature;BME280_humidity;BME280_pressure;Samples;Min_cycle;Max_cycle;Signal;HPM_P1;HPM_P2
2022/07/12 00:00:33;;;;;;;3.20;2.85;;;;;;;;;;5029719;28;20028;-73
2022/07/12 00:02:59;;;;;;;4.40;3.08;;;;;;;;;;5031280;28;20696;-73
2022/07/12 00:05:24;;;;;;;4.10;2.80;;;;;;;;;;5041273;28;20032;-75
2022/07/12 00:07:49;;;;;;;3.05;2.85;;;;;;;;;;5030839;28;20032;-73
2022/07/12 00:10:15;;;;;;;4.40;3.15;;;;;;;;;;5035644;28;20422;-75
2022/07/12 00:12:40;;;;;;;3.67;2.88;;;;;;;;;;5032331;28;20128;-75
2022/07/12 00:15:06;;;;;;;4.60;2.72;;;;;;;;;;5029581;28;20025;-76
2022/07/12 00:17:31;;;;;;;3.30;3.00;;;;;;;;;;5028520;28;20029;-74
2022/07/12 00:19:57;;;;;;;4.40;3.20;;;;;;;;;;5030119;28;20355;-73
2022/07/12 00:22:23;;;;;;;5.05;2.72;;;;;;;;;;5027030;28;20037;-72
2022/07/12 00:24:48;;;;;;;5.20;2.95;;;;;;;;;;5040785;28;20032;-73
2022/07/12 00:27:14;;;;;;;3.20;2.60;;;;;;;;;;5026692;28;20027;-73
2022/07/12 00:29:39;;;;;;;4.88;3.10;;;;;;;;;;5035088;28;20074;-74
2022/07/12 00:32:04;;;;;;;6.22;3.08;;;;;;;;;;5038769;28;20045;-73
2022/07/12 00:34:30;;;;;;;4.47;3.22;;;;;;;;;;5028674;28;20027;-72
2022/07/12 00:36:55;;;;;;;3.53;3.22;;;;;;;;;;5030959;28;20494;-73
2022/07/12 00:39:21;;;;;;;3.42;3.05;;;;;;;;;;5040228;28;20033;-73
2022/07/12 00:41:49;;;;;;;4.57;3.00;;;;;;;;;;5040470;28;20036;-73
2022/07/12 00:44:15;;;;;;;3.95;2.55;;;;;;;;;;5036466;28;20107;-73
2022/07/12 00:46:40;;;;;;;4.65;2.67;;;;;;;;;;5029812;28;20583;-73
2022/07/12 00:49:05;;;;;;;3.08;2.80;;;;;;;;;;5034402;28;20075;-72
2022/07/12 00:51:32;;;;;;;4.47;2.88;;;;;;;;;;5037242;28;20522;-74
2022/07/12 00:53:58;;;;;;;3.42;3.05;;;;;;;;;;5037693;28;20063;-74
2022/07/12 00:56:24;;;;;;;3.90;3.08;;;;;;;;;;5035695;28;20021;-72
2022/07/12 00:58:50;;;;;;;3.88;2.78;;;;;;;;;;5036209;28;20028;-72
2022/07/12 01:01:15;;;;;;;3.47;2.60;;;;;;;;;;5039796;28;20033;-73
2022/07/12 01:03:41;;;;;;;2.90;2.60;;;;;;;;;;5039205;28;20033;-72
2022/07/12 01:06:07;;;;;;;3.97;2.63;;;;;;;;;;5032986;28;20452;-73
2022/07/12 01:08:33;;;;;;;3.90;3.17;;;;;;;;;;5040306;28;20417;-72
2022/07/12 01:10:58;;;;;;;4.22;3.50;;;;;;;;;;5024435;28;20029;-72
2022/07/12 01:13:24;;;;;;;3.22;2.92;;;;;;;;;;5033866;28;20025;-73
2022/07/12 01:15:49;;;;;;;8.32;4.15;;;;;;;;;;5038638;28;20123;-75
2022/07/12 01:18:15;;;;;;;4.70;4.25;;;;;;;;;;5038625;28;20049;-73
2022/07/12 01:20:40;;;;;;;6.20;3.53;;;;;;;;;;5038620;28;20040;-72
2022/07/12 01:23:06;;;;;;;3.90;3.40;;;;;;;;;;5042292;28;20032;-72
2022/07/12 01:25:31;;;;;;;6.65;5.28;;;;;;;;;;5040313;28;20031;-73
2022/07/12 01:27:57;;;;;;;7.35;4.82;;;;;;;;;;5033035;28;20040;-73
2022/07/12 01:30:22;;;;;;;6.78;5.22;;;;;;;;;;5042184;28;20029;-72
2022/07/12 01:32:48;;;;;;;5.75;4.50;;;;;;;;;;5042296;28;20036;-73
2022/07/12 01:35:14;;;;;;;7.00;3.42;;;;;;;;;;5030880;28;20460;-73
2022/07/12 01:37:42;;;;;;;9.45;6.97;;;;;;;;;;5041406;28;20605;-73
2022/07/12 01:40:12;;;;;;;6.13;4.97;;;;;;;;;;5042738;28;20021;-73
2022/07/12 01:42:37;;;;;;;8.43;4.32;;;;;;;;;;5042478;28;20361;-75
2022/07/12 01:45:03;;;;;;;5.40;3.97;;;;;;;;;;5041868;28;20037;-76
2022/07/12 01:47:30;;;;;;;4.70;3.30;;;;;;;;;;5042216;28;20033;-72
2022/07/12 01:49:56;;;;;;;3.45;3.15;;;;;;;;;;5041208;28;20021;-74
2022/07/12 01:52:21;;;;;;;8.18;6.20;;;;;;;;;;5039906;28;20404;-74
2022/07/12 01:54:47;;;;;;;9.57;6.28;;;;;;;;;;5040604;28;20040;-72
2022/07/12 01:57:12;;;;;;;7.20;5.32;;;;;;;;;;5041192;28;20024;-76
2022/07/12 01:59:38;;;;;;;6.60;3.78;;;;;;;;;;5041456;28;20049;-73
2022/07/12 02:02:03;;;;;;;5.68;4.82;;;;;;;;;;5041537;28;20033;-73
2022/07/12 02:04:29;;;;;;;7.40;4.43;;;;;;;;;;5040176;28;20448;-73
2022/07/12 02:06:54;;;;;;;4.22;3.00;;;;;;;;;;5041351;28;20112;-73
2022/07/12 02:09:20;;;;;;;5.00;3.28;;;;;;;;;;5041790;28;20097;-73
2022/07/12 02:11:47;;;;;;;2.80;2.58;;;;;;;;;;5041882;28;20147;-75
2022/07/12 02:14:12;;;;;;;4.20;3.20;;;;;;;;;;5041303;28;20029;-73
2022/07/12 02:16:38;;;;;;;3.90;3.05;;;;;;;;;;5042118;28;20039;-72
2022/07/12 02:19:03;;;;;;;3.75;2.83;;;;;;;;;;5040762;28;20024;-73
2022/07/12 02:21:29;;;;;;;3.22;2.78;;;;;;;;;;5040563;28;20055;-74
2022/07/12 02:23:54;;;;;;;3.30;3.00;;;;;;;;;;5039658;28;20060;-75
2022/07/12 02:26:19;;;;;;;3.58;2.83;;;;;;;;;;5041214;28;20025;-74
2022/07/12 02:28:45;;;;;;;5.03;3.13;;;;;;;;;;5040547;28;20098;-74
2022/07/12 02:31:10;;;;;;;3.53;2.75;;;;;;;;;;5041026;28;20037;-73
2022/07/12 02:33:36;;;;;;;2.70;2.50;;;;;;;;;;5038582;28;20069;-73
2022/07/12 02:36:01;;;;;;;4.63;2.92;;;;;;;;;;5039521;28;20249;-73
2022/07/12 02:38:27;;;;;;;3.17;2.90;;;;;;;;;;5040739;28;20458;-73
2022/07/12 02:40:55;;;;;;;4.38;2.65;;;;;;;;;;5039452;28;20037;-73
2022/07/12 02:43:24;;;;;;;4.05;3.10;;;;;;;;;;5039014;28;20028;-73
2022/07/12 02:45:50;;;;;;;3.60;3.13;;;;;;;;;;5038098;28;20170;-72
2022/07/12 02:48:15;;;;;;;3.88;3.45;;;;;;;;;;5029706;28;20131;-75
2022/07/12 02:50:40;;;;;;;4.32;2.90;;;;;;;;;;5039469;28;20029;-73
2022/07/12 02:53:07;;;;;;;5.10;3.08;;;;;;;;;;5040285;28;20069;-75
2022/07/12 02:55:32;;;;;;;3.30;3.00;;;;;;;;;;5037915;28;20025;-74
2022/07/12 02:57:58;;;;;;;4.07;2.90;;;;;;;;;;5030818;28;20017;-72
2022/07/12 03:00:23;;;;;;;3.25;2.63;;;;;;;;;;5032242;28;20444;-73
2022/07/12 03:02:48;;;;;;;3.45;3.15;;;;;;;;;;5034006;28;20360;-72
2022/07/12 03:05:14;;;;;;;4.45;2.95;;;;;;;;;;5036739;28;20025;-73
2022/07/12 03:07:39;;;;;;;3.92;3.30;;;;;;;;;;5029852;28;20036;-75
2022/07/12 03:10:05;;;;;;;5.55;3.40;;;;;;;;;;5031780;28;20455;-72
2022/07/12 03:12:30;;;;;;;5.15;2.75;;;;;;;;;;5033368;28;20064;-73
2022/07/12 03:14:56;;;;;;;4.13;3.17;;;;;;;;;;5033541;28;20447;-73
2022/07/12 03:17:21;;;;;;;4.25;2.97;;;;;;;;;;5029952;28;20432;-71
2022/07/12 03:19:46;;;;;;;4.03;3.00;;;;;;;;;;5031027;28;20079;-74
2022/07/12 03:22:12;;;;;;;5.78;2.88;;;;;;;;;;5029438;28;20082;-73
2022/07/12 03:24:37;;;;;;;3.17;2.88;;;;;;;;;;5029778;28;20021;-73
2022/07/12 03:27:03;;;;;;;3.42;2.72;;;;;;;;;;5031388;28;20059;-76
2022/07/12 03:29:28;;;;;;;4.63;2.92;;;;;;;;;;5034559;28;20024;-74
2022/07/12 03:31:53;;;;;;;2.85;2.65;;;;;;;;;;5031130;28;23111;-73
2022/07/12 03:34:19;;;;;;;3.83;3.15;;;;;;;;;;5027735;28;20033;-74
2022/07/12 03:36:44;;;;;;;3.90;2.95;;;;;;;;;;5035418;28;20643;-76
2022/07/12 03:39:10;;;;;;;3.00;2.80;;;;;;;;;;5031660;28;20025;-72
2022/07/12 03:41:35;;;;;;;7.03;3.42;;;;;;;;;;5027727;28;20479;-73
2022/07/12 03:44:00;;;;;;;3.33;3.03;;;;;;;;;;5029683;28;20059;-73
2022/07/12 03:46:26;;;;;;;3.00;2.78;;;;;;;;;;5029383;28;20104;-72
2022/07/12 03:48:51;;;;;;;4.82;3.05;;;;;;;;;;5029225;28;20047;-72
2022/07/12 03:51:17;;;;;;;3.88;3.03;;;;;;;;;;5029807;28;20032;-74
2022/07/12 03:53:42;;;;;;;3.88;2.97;;;;;;;;;;5029465;28;20137;-75
2022/07/12 03:56:07;;;;;;;3.25;2.67;;;;;;;;;;5030744;28;20032;-74
2022/07/12 03:58:32;;;;;;;3.83;2.85;;;;;;;;;;5038918;28;20045;-72
2022/07/12 04:00:58;;;;;;;6.10;3.22;;;;;;;;;;5039221;28;20091;-73
2022/07/12 04:03:23;;;;;;;3.40;2.92;;;;;;;;;;5039257;28;20082;-73
2022/07/12 04:05:48;;;;;;;5.10;3.35;;;;;;;;;;5038438;28;20404;-73
2022/07/12 04:08:15;;;;;;;3.70;3.22;;;;;;;;;;5028137;28;20447;-75
2022/07/12 04:10:40;;;;;;;4.20;3.80;;;;;;;;;;5029430;28;20044;-74
2022/07/12 04:13:05;;;;;;;4.20;3.80;;;;;;;;;;5036994;28;20348;-73
2022/07/12 04:15:31;;;;;;;3.72;3.40;;;;;;;;;;5031704;28;20108;-73
2022/07/12 04:17:56;;;;;;;3.78;3.38;;;;;;;;;;5036608;28;20053;-73
2022/07/12 04:20:21;;;;;;;4.97;3.80;;;;;;;;;;5038705;28;21101;-76
2022/07/12 04:22:47;;;;;;;4.80;3.53;;;;;;;;;;5039282;28;20048;-76
2022/07/12 04:25:12;;;;;;;4.18;3.83;;;;;;;;;;5040248;28;20115;-71
2022/07/12 04:27:37;;;;;;;5.78;3.50;;;;;;;;;;5040035;28;20112;-73
2022/07/12 04:30:03;;;;;;;5.20;4.20;;;;;;;;;;5039441;28;20033;-74
2022/07/12 04:32:29;;;;;;;5.82;3.97;;;;;;;;;;5027721;28;20029;-71
2022/07/12 04:34:54;;;;;;;4.68;4.22;;;;;;;;;;5039082;28;20032;-70
2022/07/12 04:37:19;;;;;;;5.40;4.25;;;;;;;;;;5038276;28;20086;-73
2022/07/12 04:39:44;;;;;;;4.88;3.97;;;;;;;;;;5038942;28;20033;-71
2022/07/12 04:42:10;;;;;;;7.45;3.78;;;;;;;;;;5038807;28;20033;-72
2022/07/12 04:44:35;;;;;;;9.57;3.78;;;;;;;;;;5034929;28;20041;-72
2022/07/12 04:47:01;;;;;;;6.15;3.30;;;;;;;;;;5026142;28;20034;-72
2022/07/12 04:49:26;;;;;;;5.82;3.17;;;;;;;;;;5033742;28;20036;-71
2022/07/12 04:51:51;;;;;;;3.33;3.03;;;;;;;;;;5036644;28;20060;-78
2022/07/12 04:54:17;;;;;;;3.45;3.15;;;;;;;;;;5038946;28;20036;-72
2022/07/12 04:56:42;;;;;;;5.32;2.90;;;;;;;;;;5040643;28;20021;-72
2022/07/12 04:59:07;;;;;;;6.75;3.30;;;;;;;;;;5034622;28;20100;-73
2022/07/12 05:01:33;;;;;;;3.20;2.45;;;;;;;;;;5031122;28;20070;-73
2022/07/12 05:03:58;;;;;;;4.15;3.10;;;;;;;;;;5035365;28;20024;-75
2022/07/12 05:06:24;;;;;;;4.35;3.22;;;;;;;;;;5030514;28;20021;-73
2022/07/12 05:08:50;;;;;;;5.47;4.93;;;;;;;;;;5029897;28;20096;-77
2022/07/12 05:11:15;;;;;;;6.13;5.50;;;;;;;;;;5030314;28;20170;-78
2022/07/12 05:13:41;;;;;;;3.90;3.08;;;;;;;;;;5029768;28;20037;-73
2022/07/12 05:16:08;;;;;;;4.00;2.47;;;;;;;;;;5038143;28;20025;-72
2022/07/12 05:18:33;;;;;;;2.15;1.92;;;;;;;;;;5044412;28;20029;-73
2022/07/12 05:20:59;;;;;;;3.47;2.28;;;;;;;;;;5041853;28;20033;-73
2022/07/12 05:23:24;;;;;;;2.03;1.92;;;;;;;;;;5038796;28;20079;-79
2022/07/12 05:25:49;;;;;;;2.78;2.42;;;;;;;;;;5029832;28;20032;-78
2022/07/12 05:28:15;;;;;;;2.70;2.13;;;;;;;;;;5030316;28;20039;-73
2022/07/12 05:30:41;;;;;;;2.88;2.25;;;;;;;;;;5029563;28;20075;-72
2022/07/12 05:33:07;;;;;;;3.72;2.13;;;;;;;;;;5037572;28;20044;-75
2022/07/12 05:35:32;;;;;;;2.50;2.08;;;;;;;;;;5043898;28;20328;-74
2022/07/12 05:37:58;;;;;;;3.58;2.20;;;;;;;;;;5044119;28;20095;-72
2022/07/12 05:40:23;;;;;;;3.35;2.45;;;;;;;;;;5044528;28;20433;-77
2022/07/12 05:42:49;;;;;;;3.85;2.10;;;;;;;;;;5044223;28;20036;-74
2022/07/12 05:45:14;;;;;;;2.97;2.42;;;;;;;;;;5042368;28;20112;-73
2022/07/12 05:47:39;;;;;;;3.72;2.33;;;;;;;;;;5043887;28;20016;-77
2022/07/12 05:50:05;;;;;;;3.28;2.70;;;;;;;;;;5043745;28;20107;-72
2022/07/12 05:55:14;;;;;;;4.22;2.83;;;;;;;;;;5040638;28;20044;-80
2022/07/12 05:57:40;;;;;;;2.58;2.20;;;;;;;;;;5038661;28;20024;-76
2022/07/12 06:00:05;;;;;;;4.18;2.20;;;;;;;;;;5054923;28;20079;-76
2022/07/12 06:02:31;;;;;;;2.38;2.13;;;;;;;;;;5054757;28;20033;-75
2022/07/12 06:04:56;;;;;;;3.70;2.20;;;;;;;;;;5055587;28;20013;-76
2022/07/12 06:07:22;;;;;;;3.80;2.17;;;;;;;;;;5055338;28;20060;-75
2022/07/12 06:09:47;;;;;;;3.17;1.92;;;;;;;;;;5054075;28;20021;-75
2022/07/12 06:12:12;;;;;;;4.07;3.20;;;;;;;;;;5037757;28;20039;-75
2022/07/12 06:14:38;;;;;;;3.50;2.70;;;;;;;;;;5054487;28;20052;-75
2022/07/12 06:17:04;;;;;;;3.35;2.45;;;;;;;;;;5054768;28;20103;-74
2022/07/12 06:19:29;;;;;;;3.72;2.15;;;;;;;;;;5055066;28;20494;-75
2022/07/12 06:21:55;;;;;;;5.00;1.73;;;;;;;;;;5055312;28;20029;-75
2022/07/12 06:24:20;;;;;;;2.47;2.10;;;;;;;;;;5054777;28;20021;-76
2022/07/12 06:26:45;;;;;;;2.28;2.00;;;;;;;;;;5055245;28;20039;-74
2022/07/12 06:29:11;;;;;;;3.25;2.33;;;;;;;;;;5054718;28;20021;-76
2022/07/12 06:31:36;;;;;;;2.28;1.83;;;;;;;;;;5054941;28;20025;-75
2022/07/12 06:34:01;;;;;;;3.13;1.67;;;;;;;;;;5054394;28;20150;-75
2022/07/12 06:36:26;;;;;;;3.05;1.70;;;;;;;;;;5054569;28;20044;-75
2022/07/12 06:38:52;;;;;;;2.55;2.00;;;;;;;;;;5054319;28;20055;-75
2022/07/12 06:41:17;;;;;;;3.22;1.90;;;;;;;;;;5054134;28;20096;-75
2022/07/12 06:43:42;;;;;;;4.25;2.50;;;;;;;;;;5054423;28;20040;-75
2022/07/12 06:46:08;;;;;;;2.10;1.60;;;;;;;;;;5054414;28;20344;-75
2022/07/12 06:48:33;;;;;;;3.42;1.65;;;;;;;;;;5054329;28;20478;-75
2022/07/12 06:50:58;;;;;;;4.10;1.75;;;;;;;;;;5054125;28;20186;-75
2022/07/12 06:53:24;;;;;;;3.10;1.80;;;;;;;;;;5053966;28;20080;-75
2022/07/12 06:55:50;;;;;;;4.25;1.73;;;;;;;;;;5054189;28;20059;-75
2022/07/12 06:58:16;;;;;;;3.33;2.45;;;;;;;;;;5054157;28;20029;-74
2022/07/12 07:00:42;;;;;;;3.85;1.77;;;;;;;;;;5054183;28;20352;-74
2022/07/12 07:03:07;;;;;;;1.60;1.45;;;;;;;;;;5054048;28;20461;-74
2022/07/12 07:05:33;;;;;;;3.67;1.50;;;;;;;;;;5054093;28;20474;-75
2022/07/12 07:07:58;;;;;;;3.80;1.50;;;;;;;;;;5053622;28;20025;-75
2022/07/12 07:10:23;;;;;;;1.63;1.52;;;;;;;;;;5053643;28;20025;-74
2022/07/12 07:12:49;;;;;;;2.65;1.80;;;;;;;;;;5053258;28;20060;-74
2022/07/12 07:15:15;;;;;;;3.58;1.63;;;;;;;;;;5053882;28;20466;-75
2022/07/12 07:17:42;;;;;;;6.57;1.90;;;;;;;;;;5053710;28;20047;-75
2022/07/12 07:20:08;;;;;;;2.05;1.50;;;;;;;;;;5053112;28;20082;-75
2022/07/12 07:22:33;;;;;;;2.95;1.42;;;;;;;;;;5053436;28;20021;-74
2022/07/12 07:24:58;;;;;;;4.70;1.30;;;;;;;;;;5053553;28;20104;-75
2022/07/12 07:27:24;;;;;;;3.28;1.35;;;;;;;;;;5053387;28;20053;-74
2022/07/12 07:32:50;;;;;;;2.95;1.73;;;;;;;;;;5026937;28;20041;-75
2022/07/12 07:35:16;;;;;;;12.65;2.42;;;;;;;;;;5053259;28;20087;-75
2022/07/12 07:37:41;;;;;;;4.15;2.15;;;;;;;;;;5053505;28;20052;-74
2022/07/12 07:40:07;;;;;;;2.72;1.63;;;;;;;;;;5053248;28;20424;-75
2022/07/12 07:42:32;;;;;;;2.35;1.40;;;;;;;;;;5052773;28;20106;-74
2022/07/12 07:44:58;;;;;;;2.13;1.23;;;;;;;;;;5052998;28;20017;-76
2022/07/12 07:47:23;;;;;;;2.42;1.40;;;;;;;;;;5041563;28;20108;-75
2022/07/12 07:49:48;;;;;;;3.10;1.35;;;;;;;;;;5023659;28;20090;-75
2022/07/12 07:52:14;;;;;;;1.98;1.50;;;;;;;;;;5028327;28;20539;-74
2022/07/12 07:54:39;;;;;;;3.55;1.30;;;;;;;;;;5027759;28;20029;-75
2022/07/12 07:57:04;;;;;;;2.45;1.50;;;;;;;;;;5028798;28;20131;-73
2022/07/12 07:59:30;;;;;;;2.08;1.45;;;;;;;;;;5026108;28;20017;-75
2022/07/12 08:01:55;;;;;;;1.17;1.00;;;;;;;;;;5027014;28;20021;-75
2022/07/12 08:04:21;;;;;;;2.42;1.30;;;;;;;;;;5033245;28;20103;-79
2022/07/12 08:06:47;;;;;;;4.50;1.30;;;;;;;;;;5041174;28;20060;-80
2022/07/12 08:09:13;;;;;;;2.15;1.20;;;;;;;;;;5041565;28;20097;-79
2022/07/12 08:11:38;;;;;;;5.03;1.35;;;;;;;;;;5040847;28;20455;-76
2022/07/12 08:14:04;;;;;;;2.40;1.10;;;;;;;;;;5042196;28;20116;-75
2022/07/12 08:16:30;;;;;;;1.95;1.35;;;;;;;;;;5033124;28;20078;-73
2022/07/12 08:18:56;;;;;;;6.10;1.42;;;;;;;;;;5025469;28;20025;-74
2022/07/12 08:21:21;;;;;;;7.20;1.52;;;;;;;;;;5028807;28;20102;-75
2022/07/12 08:23:46;;;;;;;0.90;0.90;;;;;;;;;;5028755;28;20363;-75
2022/07/12 08:26:12;;;;;;;3.10;1.58;;;;;;;;;;5027025;28;20033;-77
2022/07/12 08:28:37;;;;;;;2.05;1.20;;;;;;;;;;5028569;28;20036;-76
2022/07/12 08:31:03;;;;;;;5.80;1.38;;;;;;;;;;5027974;28;20123;-75
2022/07/12 08:33:29;;;;;;;2.42;1.30;;;;;;;;;;5030765;28;20124;-75
2022/07/12 08:35:54;;;;;;;3.22;1.20;;;;;;;;;;5031790;28;20436;-76
2022/07/12 08:38:20;;;;;;;2.72;1.13;;;;;;;;;;5031088;28;20032;-81
2022/07/12 08:40:45;;;;;;;2.25;1.20;;;;;;;;;;5033748;28;20468;-77
2022/07/12 08:43:10;;;;;;;2.40;1.20;;;;;;;;;;5030649;28;20028;-81
2022/07/12 08:45:36;;;;;;;1.35;0.82;;;;;;;;;;5030471;28;20032;-78
2022/07/12 08:48:01;;;;;;;5.30;1.23;;;;;;;;;;5030145;28;20064;-74
2022/07/12 08:50:27;;;;;;;1.60;1.00;;;;;;;;;;5031559;28;20052;-77
2022/07/12 08:52:53;;;;;;;2.47;0.90;;;;;;;;;;5031573;28;20063;-74
2022/07/12 08:55:26;;;;;;;2.00;1.15;;;;;;;;;;5031325;28;20124;-82
2022/07/12 08:57:53;;;;;;;1.73;1.10;;;;;;;;;;5031730;28;20492;-82
2022/07/12 09:00:19;;;;;;;3.97;1.17;;;;;;;;;;5031152;28;20021;-77
2022/07/12 09:02:47;;;;;;;1.75;1.25;;;;;;;;;;5031152;28;20032;-75
2022/07/12 09:05:13;;;;;;;4.72;1.20;;;;;;;;;;5031272;28;20116;-76
2022/07/12 09:07:39;;;;;;;2.45;1.20;;;;;;;;;;5031444;28;20078;-77
2022/07/12 09:10:06;;;;;;;1.95;0.90;;;;;;;;;;5030717;28;20047;-76
2022/07/12 09:12:32;;;;;;;2.08;1.20;;;;;;;;;;5030316;28;20024;-76
2022/07/12 09:15:13;;;;;;;2.13;1.23;;;;;;;;;;5030840;28;20024;-76
2022/07/12 09:17:39;;;;;;;1.80;1.20;;;;;;;;;;5030338;28;20033;-80
2022/07/12 09:20:05;;;;;;;1.73;1.27;;;;;;;;;;5031349;28;20040;-79
2022/07/12 09:22:30;;;;;;;2.08;1.08;;;;;;;;;;5030220;28;20431;-77
2022/07/12 09:24:55;;;;;;;2.90;1.20;;;;;;;;;;5031383;28;20345;-75
2022/07/12 09:27:25;;;;;;;1.88;1.20;;;;;;;;;;5029977;28;20029;-75
2022/07/12 09:29:51;;;;;;;2.40;1.20;;;;;;;;;;5029807;28;20028;-78
2022/07/12 09:37:46;;;;;;;4.35;1.30;;;;;;;;;;5031019;28;20403;-77
2022/07/12 09:40:11;;;;;;;2.58;1.30;;;;;;;;;;5027731;28;20035;-81
2022/07/12 09:42:38;;;;;;;2.38;1.20;;;;;;;;;;5030066;28;20032;-79
2022/07/12 09:45:05;;;;;;;1.95;1.10;;;;;;;;;;5032539;28;20041;-77
2022/07/12 09:47:31;;;;;;;1.35;1.00;;;;;;;;;;5029873;28;20464;-78
2022/07/12 09:49:56;;;;;;;1.42;1.10;;;;;;;;;;5039134;28;20131;-74
2022/07/12 09:52:26;;;;;;;2.10;1.10;;;;;;;;;;5044404;28;20083;-73
2022/07/12 09:54:52;;;;;;;2.38;1.40;;;;;;;;;;5044093;28;20135;-81
2022/07/12 09:57:21;;;;;;;3.35;1.20;;;;;;;;;;5045011;28;20476;-75
2022/07/12 09:59:47;;;;;;;2.40;1.20;;;;;;;;;;5038628;28;20459;-72
2022/07/12 10:02:15;;;;;;;2.38;1.30;;;;;;;;;;5029480;28;20523;-79
2022/07/12 10:04:41;;;;;;;2.40;1.27;;;;;;;;;;5030207;28;20033;-73
2022/07/12 10:07:07;;;;;;;3.53;1.25;;;;;;;;;;5030320;28;20079;-73
2022/07/12 10:09:32;;;;;;;2.10;1.20;;;;;;;;;;5029769;28;20025;-73
2022/07/12 10:11:58;;;;;;;4.25;1.40;;;;;;;;;;5029209;28;20098;-79
2022/07/12 10:14:24;;;;;;;4.80;1.13;;;;;;;;;;5029079;28;20033;-80
2022/07/12 10:16:53;;;;;;;4.00;1.30;;;;;;;;;;5026821;28;20071;-75
2022/07/12 10:19:22;;;;;;;2.28;1.20;;;;;;;;;;5027940;28;20025;-75
2022/07/12 10:21:48;;;;;;;1.90;1.13;;;;;;;;;;5030597;28;24064;-76
2022/07/12 10:24:34;;;;;;;3.22;1.20;;;;;;;;;;5029004;28;20075;-76
2022/07/12 10:27:11;;;;;;;3.30;1.27;;;;;;;;;;5017771;28;21052;-72
2022/07/12 10:29:36;;;;;;;5.22;1.38;;;;;;;;;;5029586;28;20456;-71
2022/07/12 10:32:17;;;;;;;1.20;1.00;;;;;;;;;;5028615;28;20028;-74
2022/07/12 10:34:56;;;;;;;1.90;1.10;;;;;;;;;;5028353;28;20352;-73
2022/07/12 10:37:21;;;;;;;2.90;1.20;;;;;;;;;;5032102;28;20112;-71
2022/07/12 10:40:05;;;;;;;1.45;1.17;;;;;;;;;;5043278;28;20051;-72
2022/07/12 10:42:30;;;;;;;2.38;1.10;;;;;;;;;;5041231;28;20456;-71
2022/07/12 10:45:08;;;;;;;1.80;1.17;;;;;;;;;;5029157;28;20032;-80
2022/07/12 10:47:52;;;;;;;3.78;1.48;;;;;;;;;;5030024;28;20050;-78
2022/07/12 10:50:17;;;;;;;2.88;1.13;;;;;;;;;;5042087;28;20666;-74
2022/07/12 10:52:43;;;;;;;4.20;1.27;;;;;;;;;;5032395;28;20056;-74
2022/07/12 10:55:11;;;;;;;5.05;1.20;;;;;;;;;;5043217;28;20452;-73
2022/07/12 10:57:42;;;;;;;4.17;1.47;;;;;;;;;;5043516;28;20432;-80
2022/07/12 11:00:09;;;;;;;2.22;1.30;;;;;;;;;;5043583;28;20327;-78
2022/07/12 11:02:34;;;;;;;2.97;1.23;;;;;;;;;;5041845;28;20017;-73
2022/07/12 11:05:00;;;;;;;3.28;1.02;;;;;;;;;;5032842;28;20072;-80
2022/07/12 11:07:25;;;;;;;5.57;1.20;;;;;;;;;;5040431;28;20021;-74
2022/07/12 11:09:54;;;;;;;2.67;1.15;;;;;;;;;;5029832;28;20112;-74
2022/07/12 11:12:20;;;;;;;2.05;1.02;;;;;;;;;;5028957;28;20039;-75
2022/07/12 11:14:46;;;;;;;2.85;1.00;;;;;;;;;;5029126;28;20025;-76
2022/07/12 11:17:11;;;;;;;3.85;1.20;;;;;;;;;;5028543;28;20071;-74
2022/07/12 11:19:36;;;;;;;3.60;1.20;;;;;;;;;;5027404;28;20104;-74
2022/07/12 11:22:02;;;;;;;2.50;1.23;;;;;;;;;;5028767;28;20037;-83
2022/07/12 11:24:29;;;;;;;2.40;1.00;;;;;;;;;;5027230;28;20020;-77
2022/07/12 11:26:54;;;;;;;2.50;1.30;;;;;;;;;;5025880;28;20017;-77
2022/07/12 11:29:20;;;;;;;2.90;1.30;;;;;;;;;;5027716;28;20035;-76
2022/07/12 11:31:45;;;;;;;2.85;1.20;;;;;;;;;;5028227;28;20029;-75
2022/07/12 11:34:23;;;;;;;2.70;1.38;;;;;;;;;;5027922;28;20020;-75
2022/07/12 11:36:56;;;;;;;1.90;1.00;;;;;;;;;;5027648;28;20043;-82
2022/07/12 11:39:38;;;;;;;2.20;1.08;;;;;;;;;;5043776;28;20508;-79
2022/07/12 11:42:04;;;;;;;1.23;1.10;;;;;;;;;;5042681;28;20344;-75
2022/07/12 11:44:45;;;;;;;1.40;1.00;;;;;;;;;;5034981;28;20116;-75
2022/07/12 11:47:10;;;;;;;4.03;1.00;;;;;;;;;;5028323;28;20024;-77
2022/07/12 11:49:36;;;;;;;2.13;0.93;;;;;;;;;;5026318;28;20344;-79
2022/07/12 11:52:04;;;;;;;1.23;0.90;;;;;;;;;;5027216;28;20056;-79
2022/07/12 11:54:30;;;;;;;2.15;0.93;;;;;;;;;;5029118;28;20071;-75
2022/07/12 11:57:09;;;;;;;1.40;1.30;;;;;;;;;;5027725;28;20033;-79
2022/07/12 11:59:34;;;;;;;1.85;1.17;;;;;;;;;;5030050;28;20029;-77
2022/07/12 12:02:12;;;;;;;1.92;1.10;;;;;;;;;;5014659;28;20135;-74
2022/07/12 12:04:44;;;;;;;2.58;1.10;;;;;;;;;;5030668;28;20048;-74
2022/07/12 12:07:14;;;;;;;2.15;1.17;;;;;;;;;;5027010;28;20035;-73
2022/07/12 12:09:58;;;;;;;1.38;1.15;;;;;;;;;;5027874;28;20074;-82
2022/07/12 12:12:24;;;;;;;1.40;0.90;;;;;;;;;;5029069;28;20056;-73
2022/07/12 12:14:49;;;;;;;1.17;1.08;;;;;;;;;;5026806;28;20135;-77
2022/07/12 12:17:14;;;;;;;2.28;1.08;;;;;;;;;;5028003;28;20021;-73
2022/07/12 12:19:43;;;;;;;1.15;0.98;;;;;;;;;;5036372;28;20490;-83
2022/07/12 12:22:27;;;;;;;2.23;1.13;;;;;;;;;;5042086;28;20029;-72
2022/07/12 12:24:59;;;;;;;1.88;1.33;;;;;;;;;;5041286;28;20021;-75
2022/07/12 12:27:25;;;;;;;1.63;1.00;;;;;;;;;;5041252;28;20049;-74
2022/07/12 12:29:51;;;;;;;1.20;1.10;;;;;;;;;;5024626;28;20125;-76
2022/07/12 12:32:20;;;;;;;2.22;1.20;;;;;;;;;;5034823;28;20048;-74
2022/07/12 12:35:04;;;;;;;1.13;1.02;;;;;;;;;;5040166;28;20021;-76
2022/07/12 12:37:29;;;;;;;1.58;1.30;;;;;;;;;;5040208;28;20037;-74
2022/07/12 12:39:56;;;;;;;1.42;1.20;;;;;;;;;;5040743;28;20029;-74
2022/07/12 12:42:24;;;;;;;1.40;1.13;;;;;;;;;;5041091;28;20036;-75
2022/07/12 12:44:49;;;;;;;1.63;1.02;;;;;;;;;;5040219;28;20037;-74
2022/07/12 12:47:30;;;;;;;1.10;1.00;;;;;;;;;;5041483;28;20522;-74
2022/07/12 12:49:57;;;;;;;1.33;1.20;;;;;;;;;;5042115;28;20102;-74
2022/07/12 12:52:22;;;;;;;1.95;1.15;;;;;;;;;;5041336;28;20350;-75
2022/07/12 12:54:48;;;;;;;1.83;0.98;;;;;;;;;;5041242;28;20040;-75
2022/07/12 12:57:13;;;;;;;2.50;0.90;;;;;;;;;;5041780;28;20029;-74
2022/07/12 12:59:38;;;;;;;1.70;1.05;;;;;;;;;;5041553;28;20075;-76
2022/07/12 13:02:05;;;;;;;2.03;1.27;;;;;;;;;;5041046;28;20036;-73
2022/07/12 13:04:30;;;;;;;1.73;1.10;;;;;;;;;;5041792;28;20114;-76
2022/07/12 13:06:56;;;;;;;2.22;1.20;;;;;;;;;;5041628;28;20116;-80
2022/07/12 13:09:22;;;;;;;1.80;0.93;;;;;;;;;;5040789;28;20033;-76
2022/07/12 13:11:47;;;;;;;1.95;1.02;;;;;;;;;;5041386;28;20060;-75
2022/07/12 13:14:13;;;;;;;0.88;0.88;;;;;;;;;;5035699;28;20124;-82
2022/07/12 13:16:39;;;;;;;1.80;1.02;;;;;;;;;;5026633;28;20039;-75
2022/07/12 13:19:05;;;;;;;4.28;1.52;;;;;;;;;;5029817;28;20447;-79
2022/07/12 13:21:30;;;;;;;2.08;1.15;;;;;;;;;;5037018;28;20083;-81
2022/07/12 13:23:56;;;;;;;1.85;1.10;;;;;;;;;;5043620;28;20474;-78
2022/07/12 13:26:21;;;;;;;1.98;1.20;;;;;;;;;;5041466;28;20466;-77
2022/07/12 13:28:46;;;;;;;2.17;0.93;;;;;;;;;;5044137;28;20025;-73
2022/07/12 13:31:12;;;;;;;1.13;0.80;;;;;;;;;;5043706;28;20041;-76
2022/07/12 13:33:38;;;;;;;1.23;1.02;;;;;;;;;;5034350;28;20325;-75
2022/07/12 13:36:03;;;;;;;2.58;1.30;;;;;;;;;;5043781;28;20037;-75
2022/07/12 13:38:29;;;;;;;2.30;1.17;;;;;;;;;;5039656;28;20028;-77
2022/07/12 13:40:54;;;;;;;1.20;1.10;;;;;;;;;;5031124;28;20024;-74
2022/07/12 13:43:20;;;;;;;1.27;1.17;;;;;;;;;;5030628;28;20435;-79
2022/07/12 13:45:45;;;;;;;2.15;1.17;;;;;;;;;;5030703;28;20029;-74
2022/07/12 13:48:11;;;;;;;1.80;1.20;;;;;;;;;;5030291;28;20486;-76
2022/07/12 13:50:37;;;;;;;2.53;1.10;;;;;;;;;;5030963;28;20029;-78
2022/07/12 13:53:02;;;;;;;2.20;1.50;;;;;;;;;;5030035;28;20079;-76
2022/07/12 13:55:28;;;;;;;3.25;1.30;;;;;;;;;;5031799;28;20029;-76
2022/07/12 13:57:54;;;;;;;1.50;1.30;;;;;;;;;;5028877;28;20051;-76
2022/07/12 14:00:19;;;;;;;2.10;1.50;;;;;;;;;;5028878;28;20024;-75
2022/07/12 14:02:45;;;;;;;1.75;1.10;;;;;;;;;;5037796;28;20039;-74
2022/07/12 14:05:11;;;;;;;1.83;1.30;;;;;;;;;;5041412;28;20140;-74
2022/07/12 14:07:37;;;;;;;2.63;1.20;;;;;;;;;;5032358;28;20075;-75
2022/07/12 14:10:03;;;;;;;2.45;1.10;;;;;;;;;;5034413;28;20395;-75
2022/07/12 14:12:29;;;;;;;1.38;1.10;;;;;;;;;;5041443;28;20029;-73
2022/07/12 14:17:34;;;;;;;3.25;1.48;;;;;;;;;;5043631;28;20036;-77
2022/07/12 14:20:00;;;;;;;3.10;1.20;;;;;;;;;;5043708;28;20033;-76
2022/07/12 14:22:26;;;;;;;2.25;1.42;;;;;;;;;;5043987;28;20064;-79
2022/07/12 14:24:52;;;;;;;1.10;1.00;;;;;;;;;;5043809;28;20125;-75
2022/07/12 14:27:17;;;;;;;1.95;1.40;;;;;;;;;;5043946;28;20138;-75
2022/07/12 14:29:42;;;;;;;1.70;1.02;;;;;;;;;;5042764;28;20033;-76
2022/07/12 14:32:08;;;;;;;2.40;1.00;;;;;;;;;;5044625;28;20724;-77
2022/07/12 14:34:33;;;;;;;2.63;1.00;;;;;;;;;;5042862;28;20037;-77
2022/07/12 14:36:59;;;;;;;2.00;1.13;;;;;;;;;;5043354;28;20047;-77
2022/07/12 14:39:24;;;;;;;2.53;1.30;;;;;;;;;;5038226;28;20028;-74
2022/07/12 14:41:49;;;;;;;0.68;0.63;;;;;;;;;;5030968;28;20020;-74
2022/07/12 14:44:15;;;;;;;1.88;0.73;;;;;;;;;;5029481;28;20078;-79
2022/07/12 14:46:40;;;;;;;1.38;0.80;;;;;;;;;;5028296;28;20020;-76
2022/07/12 14:49:05;;;;;;;1.35;0.82;;;;;;;;;;5029658;28;20074;-78
2022/07/12 14:51:31;;;;;;;4.50;0.90;;;;;;;;;;5027510;28;21035;-78